Time;durP1;ratioP1;P1;durP2;ratioP2;P2;SDS_P1;SDS_P2;PMS_P1;PMS_P2;Temp;Humidity;BMP_temperature;BMP_pressure;BME280_temperature;BME280_humidity;BME280_pressure;Samples;Min_cycle;Max_cycle;Signal;HPM_P1;HPM_P2
2022/03/02 00:01:36;;;;;;;0.00;0.00;;;;;;;;;;5046214;28;20025;-61
2022/03/02 00:04:02;;;;;;;0.20;0.20;;;;;;;;;;5044997;28;20030;-61
2022/03/02 00:06:28;;;;;;;0.00;0.00;;;;;;;;;;5043203;28;20096;-61
2022/03/02 00:08:53;;;;;;;0.00;0.00;;;;;;;;;;5042582;28;20032;-62
2022/03/02 00:11:18;;;;;;;0.00;0.00;;;;;;;;;;5041253;28;20012;-61
2022/03/02 00:13:44;;;;;;;0.00;0.00;;;;;;;;;;5046535;28;20052;-62
2022/03/02 00:16:09;;;;;;;0.00;0.00;;;;;;;;;;5044241;28;20060;-61
2022/03/02 00:18:34;;;;;;;0.00;0.00;;;;;;;;;;5049592;28;20041;-61
2022/03/02 00:21:00;;;;;;;0.65;0.65;;;;;;;;;;5051231;28;20063;-62
2022/03/02 00:23:25;;;;;;;0.00;0.00;;;;;;;;;;5046401;28;20029;-62
2022/03/02 00:25:50;;;;;;;0.20;0.20;;;;;;;;;;5034110;28;20125;-61
2022/03/02 00:28:15;;;;;;;0.00;0.00;;;;;;;;;;5037932;28;20096;-61
2022/03/02 00:30:41;;;;;;;0.08;0.08;;;;;;;;;;5023101;28;20025;-61
2022/03/02 00:33:07;;;;;;;0.00;0.00;;;;;;;;;;5042868;28;20032;-61
2022/03/02 00:35:32;;;;;;;0.52;0.52;;;;;;;;;;5023350;28;20036;-62
2022/03/02 00:37:57;;;;;;;0.00;0.00;;;;;;;;;;5041549;28;20021;-60
2022/03/02 00:40:23;;;;;;;0.00;0.00;;;;;;;;;;5045439;28;20021;-61
2022/03/02 00:42:48;;;;;;;0.45;0.45;;;;;;;;;;5042580;28;20025;-61
2022/03/02 00:45:13;;;;;;;32.60;9.85;;;;;;;;;;5041013;28;20018;-62
2022/03/02 00:47:39;;;;;;;0.08;0.08;;;;;;;;;;5040538;28;20072;-62
2022/03/02 00:50:05;;;;;;;0.45;0.45;;;;;;;;;;5036284;28;20079;-60
2022/03/02 00:52:31;;;;;;;0.00;0.00;;;;;;;;;;5038783;28;20059;-60
2022/03/02 00:54:56;;;;;;;0.00;0.00;;;;;;;;;;5044476;28;20033;-61
2022/03/02 00:57:21;;;;;;;0.00;0.00;;;;;;;;;;5046125;28;20517;-59
2022/03/02 00:59:47;;;;;;;0.00;0.00;;;;;;;;;;5043740;28;20021;-59
2022/03/02 01:02:12;;;;;;;0.00;0.00;;;;;;;;;;5042272;28;20117;-61
2022/03/02 01:04:37;;;;;;;0.00;0.00;;;;;;;;;;5042447;28;20036;-60
2022/03/02 01:07:03;;;;;;;0.00;0.00;;;;;;;;;;5041552;28;20096;-60
2022/03/02 01:09:28;;;;;;;3.30;3.20;;;;;;;;;;5047806;28;20028;-61
2022/03/02 01:11:54;;;;;;;2.60;2.50;;;;;;;;;;5043190;28;20438;-59
2022/03/02 01:14:19;;;;;;;0.10;0.10;;;;;;;;;;5039235;28;20028;-58
2022/03/02 01:16:44;;;;;;;0.00;0.00;;;;;;;;;;5036745;28;20078;-59
2022/03/02 01:19:09;;;;;;;5.82;4.78;;;;;;;;;;5035973;28;20074;-59
2022/03/02 01:21:34;;;;;;;0.00;0.00;;;;;;;;;;5043817;28;20100;-60
2022/03/02 01:24:00;;;;;;;0.00;0.00;;;;;;;;;;5045910;28;20029;-59
2022/03/02 01:26:25;;;;;;;0.00;0.00;;;;;;;;;;5044023;28;20024;-58
2022/03/02 01:28:53;;;;;;;0.00;0.00;;;;;;;;;;5040592;28;20470;-58
2022/03/02 01:31:21;;;;;;;0.00;0.00;;;;;;;;;;5041637;28;20026;-61
2022/03/02 01:33:46;;;;;;;0.00;0.00;;;;;;;;;;5047192;28;20033;-60
2022/03/02 01:36:12;;;;;;;2.83;1.95;;;;;;;;;;5048235;28;20028;-60
2022/03/02 01:38:38;;;;;;;2.17;2.17;;;;;;;;;;5034509;28;20537;-58
2022/03/02 01:41:04;;;;;;;0.05;0.05;;;;;;;;;;5043292;28;20039;-60
2022/03/02 01:43:29;;;;;;;0.00;0.00;;;;;;;;;;5043883;28;20554;-59
2022/03/02 01:45:55;;;;;;;0.00;0.00;;;;;;;;;;5043352;28;20088;-59
2022/03/02 01:48:20;;;;;;;0.00;0.00;;;;;;;;;;5048204;28;20454;-59
2022/03/02 01:50:45;;;;;;;0.00;0.00;;;;;;;;;;5045400;28;20028;-59
2022/03/02 01:53:10;;;;;;;0.00;0.00;;;;;;;;;;5041716;28;20021;-58
2022/03/02 01:55:36;;;;;;;0.00;0.00;;;;;;;;;;5038580;28;20025;-60
2022/03/02 01:58:01;;;;;;;0.00;0.00;;;;;;;;;;5045644;28;20358;-59
2022/03/02 02:00:26;;;;;;;0.00;0.00;;;;;;;;;;5044660;28;20478;-59
2022/03/02 02:02:52;;;;;;;0.00;0.00;;;;;;;;;;5043468;28;20021;-60
2022/03/02 02:05:17;;;;;;;0.00;0.00;;;;;;;;;;5044312;28;20459;-59
2022/03/02 02:07:44;;;;;;;0.00;0.00;;;;;;;;;;5043007;28;20013;-60
2022/03/02 02:10:09;;;;;;;0.00;0.00;;;;;;;;;;5041636;28;20009;-60
2022/03/02 02:12:35;;;;;;;0.00;0.00;;;;;;;;;;5045235;28;20043;-59
2022/03/02 02:15:00;;;;;;;0.00;0.00;;;;;;;;;;5037830;28;20026;-60
2022/03/02 02:17:26;;;;;;;0.00;0.00;;;;;;;;;;5041223;28;20021;-59
2022/03/02 02:19:52;;;;;;;0.00;0.00;;;;;;;;;;5042023;28;20017;-60
2022/03/02 02:22:17;;;;;;;0.00;0.00;;;;;;;;;;5036234;28;20104;-57
2022/03/02 02:24:43;;;;;;;0.00;0.00;;;;;;;;;;5035796;28;20099;-59
2022/03/02 02:27:08;;;;;;;0.00;0.00;;;;;;;;;;5039058;28;20025;-59
2022/03/02 02:29:34;;;;;;;0.65;0.65;;;;;;;;;;5044886;28;20019;-59
2022/03/02 02:31:59;;;;;;;0.40;0.40;;;;;;;;;;5043009;28;20056;-58
2022/03/02 02:34:25;;;;;;;0.00;0.00;;;;;;;;;;5043784;28;20028;-58
2022/03/02 02:36:51;;;;;;;0.00;0.00;;;;;;;;;;5039750;28;20489;-59
2022/03/02 02:39:16;;;;;;;0.00;0.00;;;;;;;;;;5043577;28;20028;-59
2022/03/02 02:41:41;;;;;;;0.00;0.00;;;;;;;;;;5041980;28;20033;-61
2022/03/02 02:44:07;;;;;;;0.00;0.00;;;;;;;;;;5015880;28;20028;-60
2022/03/02 02:46:32;;;;;;;0.00;0.00;;;;;;;;;;5042450;28;20032;-59
2022/03/02 02:48:57;;;;;;;0.00;0.00;;;;;;;;;;5039539;28;20021;-60
2022/03/02 02:51:22;;;;;;;8.80;8.32;;;;;;;;;;5045213;28;20104;-59
2022/03/02 02:53:48;;;;;;;0.00;0.00;;;;;;;;;;5036850;28;20021;-58
2022/03/02 02:56:13;;;;;;;0.00;0.00;;;;;;;;;;5043328;28;20033;-61
2022/03/02 02:58:38;;;;;;;0.00;0.00;;;;;;;;;;5042181;28;20021;-59
2022/03/02 03:01:04;;;;;;;0.00;0.00;;;;;;;;;;5042356;28;20033;-59
2022/03/02 03:03:29;;;;;;;0.05;0.05;;;;;;;;;;5040331;28;20016;-59
2022/03/02 03:05:54;;;;;;;0.00;0.00;;;;;;;;;;5041359;28;20108;-59
2022/03/02 03:08:20;;;;;;;0.00;0.00;;;;;;;;;;5041683;28;20079;-60
2022/03/02 03:10:45;;;;;;;0.00;0.00;;;;;;;;;;5040426;28;20025;-59
2022/03/02 03:13:11;;;;;;;0.00;0.00;;;;;;;;;;5038656;28;20025;-60
2022/03/02 03:15:36;;;;;;;0.00;0.00;;;;;;;;;;5038480;28;20033;-58
2022/03/02 03:18:02;;;;;;;0.00;0.00;;;;;;;;;;5043938;28;20383;-60
2022/03/02 03:20:27;;;;;;;0.00;0.00;;;;;;;;;;5040195;28;20022;-59
2022/03/02 03:22:54;;;;;;;0.00;0.00;;;;;;;;;;5035825;28;20028;-60
2022/03/02 03:25:19;;;;;;;0.00;0.00;;;;;;;;;;5042561;28;20378;-60
2022/03/02 03:27:45;;;;;;;1.20;1.20;;;;;;;;;;5019697;28;20022;-60
2022/03/02 03:30:11;;;;;;;0.00;0.00;;;;;;;;;;5042651;28;20025;-59
2022/03/02 03:32:36;;;;;;;0.00;0.00;;;;;;;;;;5042884;28;20025;-60
2022/03/02 03:35:03;;;;;;;0.00;0.00;;;;;;;;;;5039709;28;20021;-59
2022/03/02 03:37:28;;;;;;;0.00;0.00;;;;;;;;;;5042086;28;20053;-58
2022/03/02 03:39:55;;;;;;;0.00;0.00;;;;;;;;;;5041400;28;20506;-58
2022/03/02 03:42:21;;;;;;;0.00;0.00;;;;;;;;;;5037908;28;20466;-60
2022/03/02 03:44:46;;;;;;;0.32;0.32;;;;;;;;;;5038543;28;20032;-60
2022/03/02 03:47:11;;;;;;;0.00;0.00;;;;;;;;;;5038666;28;20061;-60
2022/03/02 03:49:36;;;;;;;0.00;0.00;;;;;;;;;;5040674;28;20348;-60
2022/03/02 03:52:02;;;;;;;0.00;0.00;;;;;;;;;;5036658;28;20013;-60
2022/03/02 03:54:27;;;;;;;0.00;0.00;;;;;;;;;;5048163;28;20029;-61
2022/03/02 03:56:53;;;;;;;0.00;0.00;;;;;;;;;;5045594;28;20393;-60
2022/03/02 03:59:18;;;;;;;8.57;2.92;;;;;;;;;;5047955;28;20091;-59
2022/03/02 04:01:43;;;;;;;0.00;0.00;;;;;;;;;;5045716;28;20094;-61
2022/03/02 04:04:08;;;;;;;0.00;0.00;;;;;;;;;;5042135;28;20467;-60
2022/03/02 04:06:34;;;;;;;0.00;0.00;;;;;;;;;;5047318;28;20029;-59
2022/03/02 04:08:59;;;;;;;0.00;0.00;;;;;;;;;;5043086;28;20075;-60
2022/03/02 04:11:24;;;;;;;0.00;0.00;;;;;;;;;;5047355;28;20029;-61
2022/03/02 04:13:50;;;;;;;0.00;0.00;;;;;;;;;;5047750;28;20451;-60
2022/03/02 04:16:15;;;;;;;0.00;0.00;;;;;;;;;;5043271;28;20032;-60
2022/03/02 04:18:40;;;;;;;0.00;0.00;;;;;;;;;;5040957;28;20045;-60
2022/03/02 04:21:06;;;;;;;0.15;0.15;;;;;;;;;;5041409;28;20078;-60
2022/03/02 04:23:31;;;;;;;0.80;0.77;;;;;;;;;;5042149;28;20029;-59
2022/03/02 04:25:57;;;;;;;0.13;0.13;;;;;;;;;;5045371;28;20528;-60
2022/03/02 04:28:22;;;;;;;0.00;0.00;;;;;;;;;;5041294;28;20074;-60
2022/03/02 04:30:48;;;;;;;0.00;0.00;;;;;;;;;;5042259;28;20025;-59
2022/03/02 04:33:14;;;;;;;0.00;0.00;;;;;;;;;;5046149;28;20029;-59
2022/03/02 04:35:40;;;;;;;0.00;0.00;;;;;;;;;;5024653;28;20036;-60
2022/03/02 04:38:05;;;;;;;0.00;0.00;;;;;;;;;;5042529;28;20432;-59
2022/03/02 04:40:31;;;;;;;0.00;0.00;;;;;;;;;;5040486;28;20041;-60
2022/03/02 04:42:56;;;;;;;1.75;1.75;;;;;;;;;;5037358;28;20025;-59
2022/03/02 04:45:27;;;;;;;0.00;0.00;;;;;;;;;;5040640;28;20028;-59
2022/03/02 04:47:53;;;;;;;0.45;0.45;;;;;;;;;;5036209;28;20478;-60
2022/03/02 04:50:22;;;;;;;0.20;0.20;;;;;;;;;;5038411;28;20027;-59
2022/03/02 04:52:50;;;;;;;0.00;0.00;;;;;;;;;;5039980;28;20064;-59
2022/03/02 04:55:16;;;;;;;1.23;1.17;;;;;;;;;;5043003;28;20037;-60
2022/03/02 04:57:43;;;;;;;0.00;0.00;;;;;;;;;;5041154;28;20053;-60
2022/03/02 05:00:10;;;;;;;0.00;0.00;;;;;;;;;;5043009;28;20017;-59
2022/03/02 05:02:36;;;;;;;14.40;3.70;;;;;;;;;;5038527;28;20079;-59
2022/03/02 05:05:01;;;;;;;0.00;0.00;;;;;;;;;;5038285;28;20374;-60
2022/03/02 05:07:26;;;;;;;3.25;3.10;;;;;;;;;;5038660;28;20057;-60
2022/03/02 05:09:52;;;;;;;0.20;0.20;;;;;;;;;;5039807;28;20021;-60
2022/03/02 05:12:17;;;;;;;0.00;0.00;;;;;;;;;;5037238;28;20335;-59
2022/03/02 05:14:42;;;;;;;0.00;0.00;;;;;;;;;;5040214;28;20052;-59
2022/03/02 05:17:07;;;;;;;0.00;0.00;;;;;;;;;;5035759;28;20439;-59
2022/03/02 05:19:33;;;;;;;0.00;0.00;;;;;;;;;;5037406;28;20502;-60
2022/03/02 05:21:58;;;;;;;0.00;0.00;;;;;;;;;;5039681;28;20017;-59
2022/03/02 05:24:23;;;;;;;6.80;1.17;;;;;;;;;;5039054;28;20305;-59
2022/03/02 05:26:49;;;;;;;1.20;0.85;;;;;;;;;;5039383;28;20032;-60
2022/03/02 05:29:14;;;;;;;0.63;0.63;;;;;;;;;;5037429;28;20062;-59
2022/03/02 05:31:39;;;;;;;0.00;0.00;;;;;;;;;;5041794;28;20075;-58
2022/03/02 05:34:05;;;;;;;1.60;1.05;;;;;;;;;;5042438;28;20071;-58
2022/03/02 05:36:30;;;;;;;0.00;0.00;;;;;;;;;;5035412;28;20074;-59
2022/03/02 05:38:56;;;;;;;1.63;1.63;;;;;;;;;;5036952;28;20036;-60
2022/03/02 05:41:21;;;;;;;0.43;0.43;;;;;;;;;;5043265;28;20024;-59
2022/03/02 05:43:46;;;;;;;0.00;0.00;;;;;;;;;;5046222;28;20095;-60
2022/03/02 05:46:12;;;;;;;0.22;0.22;;;;;;;;;;5033574;28;20374;-60
2022/03/02 05:48:37;;;;;;;0.00;0.00;;;;;;;;;;5038069;28;20075;-59
2022/03/02 05:51:03;;;;;;;0.00;0.00;;;;;;;;;;5040437;28;20111;-58
2022/03/02 05:53:28;;;;;;;0.00;0.00;;;;;;;;;;5035688;28;20075;-60
2022/03/02 05:55:53;;;;;;;0.00;0.00;;;;;;;;;;5037056;28;20038;-60
2022/03/02 05:58:18;;;;;;;0.00;0.00;;;;;;;;;;5038123;28;20494;-59
2022/03/02 06:00:44;;;;;;;0.03;0.03;;;;;;;;;;5036243;28;20517;-60
2022/03/02 06:03:09;;;;;;;5.82;4.68;;;;;;;;;;5040847;28;20043;-60
2022/03/02 06:05:34;;;;;;;0.00;0.00;;;;;;;;;;5042320;28;20080;-60
2022/03/02 06:07:59;;;;;;;0.30;0.30;;;;;;;;;;5036771;28;20026;-61
2022/03/02 06:10:25;;;;;;;0.00;0.00;;;;;;;;;;5043145;28;20100;-60
2022/03/02 06:12:50;;;;;;;0.00;0.00;;;;;;;;;;5040838;28;20108;-61
2022/03/02 06:15:16;;;;;;;0.00;0.00;;;;;;;;;;5036087;28;20104;-60
2022/03/02 06:17:41;;;;;;;0.10;0.10;;;;;;;;;;5016290;28;20490;-60
2022/03/02 06:20:08;;;;;;;0.47;0.47;;;;;;;;;;5039116;28;20120;-58
2022/03/02 06:22:34;;;;;;;0.03;0.03;;;;;;;;;;5038762;28;20040;-59
2022/03/02 06:24:59;;;;;;;0.00;0.00;;;;;;;;;;5041118;28;20025;-59
2022/03/02 06:27:24;;;;;;;0.00;0.00;;;;;;;;;;5038277;28;20029;-61
2022/03/02 06:29:49;;;;;;;0.00;0.00;;;;;;;;;;5040975;28;20021;-59
2022/03/02 06:32:15;;;;;;;0.20;0.20;;;;;;;;;;5038062;28;20013;-60
2022/03/02 06:34:41;;;;;;;0.00;0.00;;;;;;;;;;5043967;28;20686;-59
2022/03/02 06:37:06;;;;;;;0.38;0.38;;;;;;;;;;5037846;28;20083;-60
2022/03/02 06:39:31;;;;;;;0.93;0.93;;;;;;;;;;5038230;28;20065;-59
2022/03/02 06:42:04;;;;;;;0.00;0.00;;;;;;;;;;5039486;28;20033;-60
2022/03/02 06:44:29;;;;;;;0.75;0.75;;;;;;;;;;5033254;28;20029;-60
2022/03/02 06:46:57;;;;;;;0.30;0.30;;;;;;;;;;5043426;28;20027;-60
2022/03/02 06:49:45;;;;;;;0.00;0.00;;;;;;;;;;5019344;28;20104;-59
2022/03/02 06:52:12;;;;;;;0.00;0.00;;;;;;;;;;5017356;28;20013;-60
2022/03/02 06:54:40;;;;;;;0.60;0.60;;;;;;;;;;5034179;28;20031;-59
2022/03/02 06:57:07;;;;;;;0.95;0.95;;;;;;;;;;5035669;28;20131;-60
2022/03/02 06:59:37;;;;;;;0.03;0.03;;;;;;;;;;5038005;28;20702;-59
2022/03/02 07:02:04;;;;;;;0.20;0.20;;;;;;;;;;5027839;28;20378;-60
2022/03/02 07:04:32;;;;;;;0.00;0.00;;;;;;;;;;5035970;28;20049;-60
2022/03/02 07:06:58;;;;;;;0.00;0.00;;;;;;;;;;5033924;28;20036;-60
2022/03/02 07:09:23;;;;;;;0.10;0.10;;;;;;;;;;5035912;28;20256;-60
2022/03/02 07:11:48;;;;;;;0.03;0.03;;;;;;;;;;5032841;28;20052;-60
2022/03/02 07:14:15;;;;;;;0.00;0.00;;;;;;;;;;5031607;28;20068;-60
2022/03/02 07:16:42;;;;;;;2.45;0.63;;;;;;;;;;5020961;28;20025;-60
2022/03/02 07:19:07;;;;;;;1.42;1.38;;;;;;;;;;5031221;28;20056;-59
2022/03/02 07:21:33;;;;;;;1.85;0.90;;;;;;;;;;5031564;28;20393;-61
2022/03/02 07:24:04;;;;;;;0.13;0.13;;;;;;;;;;5018109;28;20470;-61
2022/03/02 07:26:29;;;;;;;0.00;0.00;;;;;;;;;;5042386;28;20017;-59
2022/03/02 07:28:55;;;;;;;0.00;0.00;;;;;;;;;;5039914;28;20038;-59
2022/03/02 07:31:23;;;;;;;0.40;0.40;;;;;;;;;;5041829;28;20474;-60
2022/03/02 07:33:50;;;;;;;2.47;1.98;;;;;;;;;;5037561;28;20033;-59
2022/03/02 07:36:18;;;;;;;0.45;0.45;;;;;;;;;;5035086;28;20017;-60
2022/03/02 07:38:43;;;;;;;0.13;0.13;;;;;;;;;;5039252;28;20486;-61
2022/03/02 07:41:09;;;;;;;0.10;0.10;;;;;;;;;;5019458;28;20025;-60
2022/03/02 07:43:38;;;;;;;0.20;0.20;;;;;;;;;;5040118;28;20517;-62
2022/03/02 07:46:12;;;;;;;0.00;0.00;;;;;;;;;;5039964;28;20030;-61
2022/03/02 07:48:38;;;;;;;0.00;0.00;;;;;;;;;;5042218;28;20012;-62
2022/03/02 07:51:05;;;;;;;1.35;0.90;;;;;;;;;;5037819;28;20040;-62
2022/03/02 07:53:32;;;;;;;0.00;0.00;;;;;;;;;;5041729;28;20025;-63
2022/03/02 07:55:59;;;;;;;0.00;0.00;;;;;;;;;;5039536;28;20033;-61
2022/03/02 07:58:24;;;;;;;0.10;0.10;;;;;;;;;;5040534;28;20388;-61
2022/03/02 08:00:52;;;;;;;0.15;0.05;;;;;;;;;;5044424;28;20121;-61
2022/03/02 08:03:18;;;;;;;1.45;0.93;;;;;;;;;;5043320;28;20083;-60
2022/03/02 08:05:44;;;;;;;0.10;0.10;;;;;;;;;;5037435;28;20498;-60
2022/03/02 08:08:10;;;;;;;0.00;0.00;;;;;;;;;;5040455;28;20040;-61
2022/03/02 08:10:35;;;;;;;0.00;0.00;;;;;;;;;;5040719;28;20446;-61
2022/03/02 08:13:01;;;;;;;0.00;0.00;;;;;;;;;;5042574;28;20025;-61
2022/03/02 08:15:27;;;;;;;0.00;0.00;;;;;;;;;;5041249;28;20018;-61
2022/03/02 08:17:53;;;;;;;3.08;0.73;;;;;;;;;;5044923;28;20045;-62
2022/03/02 08:20:19;;;;;;;0.00;0.00;;;;;;;;;;5049810;28;20033;-61
2022/03/02 08:22:45;;;;;;;0.00;0.00;;;;;;;;;;5045769;28;20021;-61
2022/03/02 08:25:10;;;;;;;0.00;0.00;;;;;;;;;;5039157;28;20021;-61
2022/03/02 08:27:39;;;;;;;0.88;0.88;;;;;;;;;;5049581;28;20130;-61
2022/03/02 08:30:06;;;;;;;0.10;0.10;;;;;;;;;;5041498;28;20038;-60
2022/03/02 08:32:34;;;;;;;1.00;1.00;;;;;;;;;;5036268;28;20079;-60
2022/03/02 08:35:00;;;;;;;0.00;0.00;;;;;;;;;;5042289;28;20029;-63
2022/03/02 08:37:26;;;;;;;7.20;1.20;;;;;;;;;;5039662;28;20382;-60
2022/03/02 08:39:52;;;;;;;1.75;1.30;;;;;;;;;;5007174;28;20120;-61
2022/03/02 08:42:17;;;;;;;0.08;0.08;;;;;;;;;;5047762;28;20448;-61
2022/03/02 08:44:44;;;;;;;0.13;0.13;;;;;;;;;;5043506;28;20029;-60
2022/03/02 08:47:10;;;;;;;1.08;0.98;;;;;;;;;;5028116;28;20115;-61
2022/03/02 08:49:35;;;;;;;0.10;0.10;;;;;;;;;;5019353;28;20412;-61
2022/03/02 08:52:00;;;;;;;0.73;0.73;;;;;;;;;;5042422;28;20446;-61
2022/03/02 08:54:26;;;;;;;0.10;0.10;;;;;;;;;;5040543;28;20108;-61
2022/03/02 08:56:52;;;;;;;0.93;0.93;;;;;;;;;;5038768;28;20370;-60
2022/03/02 08:59:20;;;;;;;0.38;0.38;;;;;;;;;;5039731;28;20048;-61
2022/03/02 09:01:50;;;;;;;1.02;0.93;;;;;;;;;;5040890;28;20477;-61
2022/03/02 09:04:16;;;;;;;;;;;;;;;;;;5041443;28;20104;-61
2022/03/02 09:06:43;;;;;;;0.17;0.17;;;;;;;;;;5034143;28;19912;-61
2022/03/02 09:09:08;;;;;;;2.60;2.40;;;;;;;;;;5044163;28;20056;-60
2022/03/02 09:11:34;;;;;;;0.65;0.65;;;;;;;;;;5039072;28;20074;-62
2022/03/02 09:14:00;;;;;;;0.45;0.45;;;;;;;;;;5038358;28;20032;-62
2022/03/02 09:16:26;;;;;;;0.52;0.47;;;;;;;;;;5038361;28;20152;-59
2022/03/02 09:18:51;;;;;;;0.10;0.10;;;;;;;;;;5040125;28;20116;-60
2022/03/02 09:21:18;;;;;;;0.75;0.75;;;;;;;;;;5043775;28;20071;-61
2022/03/02 09:23:44;;;;;;;0.00;0.00;;;;;;;;;;5041878;28;20029;-62
2022/03/02 09:26:14;;;;;;;1.17;1.17;;;;;;;;;;5039418;28;20076;-60
2022/03/02 09:28:44;;;;;;;0.20;0.20;;;;;;;;;;5044251;28;20108;-60
2022/03/02 09:31:11;;;;;;;0.35;0.35;;;;;;;;;;5041193;28;20037;-61
2022/03/02 09:33:37;;;;;;;1.75;1.10;;;;;;;;;;5037995;28;20348;-61
2022/03/02 09:36:07;;;;;;;0.00;0.00;;;;;;;;;;5039981;28;20036;-62
2022/03/02 09:38:33;;;;;;;0.00;0.00;;;;;;;;;;5041911;28;20021;-61
2022/03/02 09:41:06;;;;;;;0.00;0.00;;;;;;;;;;5036688;28;20030;-61
2022/03/02 09:43:32;;;;;;;0.80;0.80;;;;;;;;;;5044641;28;20116;-61
2022/03/02 09:46:02;;;;;;;1.25;1.15;;;;;;;;;;5035333;28;20467;-60
2022/03/02 09:48:35;;;;;;;0.17;0.17;;;;;;;;;;5034523;28;20391;-61
2022/03/02 09:51:02;;;;;;;0.00;0.00;;;;;;;;;;5039328;28;20016;-61
2022/03/02 09:53:28;;;;;;;0.08;0.08;;;;;;;;;;5036888;28;20063;-61
2022/03/02 09:55:57;;;;;;;0.00;0.00;;;;;;;;;;5035767;28;20025;-60
2022/03/02 09:58:24;;;;;;;4.28;2.70;;;;;;;;;;5044675;28;20639;-60
2022/03/02 10:00:52;;;;;;;0.00;0.00;;;;;;;;;;5038593;28;20033;-61
2022/03/02 10:03:19;;;;;;;1.73;0.87;;;;;;;;;;5038358;28;20481;-61
2022/03/02 10:05:47;;;;;;;1.48;1.38;;;;;;;;;;5041887;28;20017;-62
2022/03/02 10:08:15;;;;;;;0.00;0.00;;;;;;;;;;5043033;28;20347;-62
2022/03/02 10:10:40;;;;;;;0.08;0.08;;;;;;;;;;5041006;28;20251;-61
2022/03/02 10:13:10;;;;;;;1.33;1.23;;;;;;;;;;5043368;28;20029;-61
2022/03/02 10:15:35;;;;;;;;;;;;;;;;;;5031690;28;20021;-62
2022/03/02 10:18:01;;;;;;;1.95;1.27;;;;;;;;;;5041688;28;19923;-61
2022/03/02 10:20:28;;;;;;;0.80;0.80;;;;;;;;;;5041613;28;20018;-61
2022/03/02 10:23:14;;;;;;;0.03;0.03;;;;;;;;;;5043846;28;20041;-62
2022/03/02 10:25:45;;;;;;;1.75;1.65;;;;;;;;;;5041825;28;20034;-62
2022/03/02 10:28:15;;;;;;;0.00;0.00;;;;;;;;;;5035659;28;20419;-63
2022/03/02 10:30:41;;;;;;;1.17;1.17;;;;;;;;;;5041889;28;20399;-63
2022/03/02 10:33:16;;;;;;;0.47;0.22;;;;;;;;;;5040616;28;20458;-63
2022/03/02 10:35:45;;;;;;;0.25;0.25;;;;;;;;;;5038090;28;20023;-63
2022/03/02 10:38:15;;;;;;;0.38;0.38;;;;;;;;;;5036867;28;20075;-65
2022/03/02 10:40:40;;;;;;;0.00;0.00;;;;;;;;;;5041741;28;20037;-64
2022/03/02 10:43:09;;;;;;;0.47;0.45;;;;;;;;;;5023251;28;20161;-64
2022/03/02 10:45:47;;;;;;;0.00;0.00;;;;;;;;;;5036619;28;20010;-65
2022/03/02 10:48:14;;;;;;;0.00;0.00;;;;;;;;;;5046215;28;20027;-64
2022/03/02 10:50:40;;;;;;;0.00;0.00;;;;;;;;;;5036051;28;20029;-62
2022/03/02 10:53:13;;;;;;;0.00;0.00;;;;;;;;;;5034767;28;20650;-66
2022/03/02 10:55:41;;;;;;;0.00;0.00;;;;;;;;;;5041331;28;20049;-65
2022/03/02 10:58:06;;;;;;;0.00;0.00;;;;;;;;;;5040946;28;20025;-64
2022/03/02 11:00:32;;;;;;;0.00;0.00;;;;;;;;;;5042149;28;20770;-67
2022/03/02 11:02:59;;;;;;;0.00;0.00;;;;;;;;;;5037641;28;20041;-67
2022/03/02 11:05:26;;;;;;;1.65;0.98;;;;;;;;;;5041062;28;20063;-67
2022/03/02 11:07:51;;;;;;;3.55;3.10;;;;;;;;;;5038474;28;20033;-66
2022/03/02 11:10:18;;;;;;;0.00;0.00;;;;;;;;;;5036391;28;20017;-63
2022/03/02 11:12:44;;;;;;;0.47;0.47;;;;;;;;;;5037675;28;20041;-64
2022/03/02 11:15:11;;;;;;;1.75;1.00;;;;;;;;;;5038465;28;20082;-64
2022/03/02 11:17:48;;;;;;;0.93;0.93;;;;;;;;;;5037690;28;20025;-63
2022/03/02 11:20:14;;;;;;;0.10;0.10;;;;;;;;;;5046522;28;20036;-66
2022/03/02 11:22:39;;;;;;;0.10;0.10;;;;;;;;;;5048219;28;20025;-66
2022/03/02 11:25:05;;;;;;;0.00;0.00;;;;;;;;;;5040045;28;20031;-65
2022/03/02 11:27:35;;;;;;;1.10;1.00;;;;;;;;;;5036614;28;20025;-65
2022/03/02 11:30:02;;;;;;;0.20;0.20;;;;;;;;;;5038589;28;20147;-65
2022/03/02 11:32:28;;;;;;;0.05;0.05;;;;;;;;;;5040181;28;20097;-65
2022/03/02 11:34:56;;;;;;;0.00;0.00;;;;;;;;;;5047063;28;20071;-65
2022/03/02 11:37:22;;;;;;;2.45;2.35;;;;;;;;;;5040626;28;20076;-64
2022/03/02 11:39:48;;;;;;;1.40;1.10;;;;;;;;;;5040714;28;20021;-62
2022/03/02 11:42:15;;;;;;;0.95;0.17;;;;;;;;;;5040999;28;20108;-63
2022/03/02 11:44:41;;;;;;;1.75;1.65;;;;;;;;;;5038947;28;20061;-64
2022/03/02 11:47:07;;;;;;;0.00;0.00;;;;;;;;;;5041992;28;20018;-65
2022/03/02 11:49:45;;;;;;;0.13;0.13;;;;;;;;;;5040456;28;20034;-66
2022/03/02 11:52:32;;;;;;;0.00;0.00;;;;;;;;;;5030541;28;20421;-65
2022/03/02 11:55:01;;;;;;;5.15;1.38;;;;;;;;;;5035518;28;20037;-66
2022/03/02 11:57:28;;;;;;;1.05;1.05;;;;;;;;;;5044186;28;20523;-64
2022/03/02 12:00:10;;;;;;;1.75;1.65;;;;;;;;;;5025581;28;20033;-67
2022/03/02 12:02:43;;;;;;;0.00;0.00;;;;;;;;;;5030449;28;20052;-66
2022/03/02 12:05:08;;;;;;;1.42;1.35;;;;;;;;;;5042392;28;20029;-66
2022/03/02 12:07:36;;;;;;;0.28;0.28;;;;;;;;;;5046893;28;20017;-66
2022/03/02 12:10:02;;;;;;;0.52;0.52;;;;;;;;;;5025946;28;20017;-64
2022/03/02 12:12:27;;;;;;;46.45;10.50;;;;;;;;;;5038483;28;20029;-64
2022/03/02 12:14:57;;;;;;;0.08;0.08;;;;;;;;;;5039827;28;20025;-66
2022/03/02 12:17:33;;;;;;;2.50;2.33;;;;;;;;;;5050025;28;20079;-65
2022/03/02 12:19:59;;;;;;;7.55;2.80;;;;;;;;;;5035528;28;20026;-64
2022/03/02 12:22:32;;;;;;;0.57;0.38;;;;;;;;;;5020444;28;20036;-62
2022/03/02 12:24:58;;;;;;;4.75;1.00;;;;;;;;;;5040383;28;20080;-63
2022/03/02 12:27:23;;;;;;;6.15;1.05;;;;;;;;;;5035845;28;20382;-62
2022/03/02 12:29:53;;;;;;;5.30;2.15;;;;;;;;;;5035842;28;20025;-62
2022/03/02 12:32:18;;;;;;;0.75;0.73;;;;;;;;;;5035024;28;20108;-62
2022/03/02 12:34:45;;;;;;;0.63;0.63;;;;;;;;;;5036332;28;20434;-63
2022/03/02 12:37:12;;;;;;;4.20;4.10;;;;;;;;;;5039043;28;20044;-64
2022/03/02 12:39:38;;;;;;;2.22;1.80;;;;;;;;;;5051837;28;20458;-64
2022/03/02 12:42:07;;;;;;;4.63;1.42;;;;;;;;;;5055866;28;20021;-62
2022/03/02 12:44:35;;;;;;;1.40;1.30;;;;;;;;;;5055285;28;20017;-63
2022/03/02 12:47:02;;;;;;;0.20;0.20;;;;;;;;;;5051779;28;20036;-61
2022/03/02 12:49:28;;;;;;;0.60;0.50;;;;;;;;;;5037963;28;20474;-61
2022/03/02 12:51:55;;;;;;;1.75;1.75;;;;;;;;;;5056451;28;20021;-63
2022/03/02 12:54:21;;;;;;;0.00;0.00;;;;;;;;;;5026934;28;20112;-66
2022/03/02 12:56:46;;;;;;;2.50;1.17;;;;;;;;;;5035776;28;20053;-64
2022/03/02 12:59:12;;;;;;;0.00;0.00;;;;;;;;;;5035467;28;20025;-63
2022/03/02 13:01:37;;;;;;;0.00;0.00;;;;;;;;;;5033090;28;20057;-65
2022/03/02 13:04:04;;;;;;;0.22;0.22;;;;;;;;;;5033326;28;20071;-65
2022/03/02 13:06:32;;;;;;;1.50;1.40;;;;;;;;;;5032812;28;20430;-64
2022/03/02 13:09:04;;;;;;;1.60;1.50;;;;;;;;;;5030314;28;20094;-64
2022/03/02 13:11:31;;;;;;;1.35;0.82;;;;;;;;;;5031188;28;20470;-64
2022/03/02 13:13:56;;;;;;;2.22;2.22;;;;;;;;;;5031297;28;20022;-65
2022/03/02 13:16:26;;;;;;;0.75;0.75;;;;;;;;;;5031600;28;20070;-60
2022/03/02 13:18:52;;;;;;;1.88;1.10;;;;;;;;;;5030547;28;20059;-63
2022/03/02 13:21:19;;;;;;;1.75;1.65;;;;;;;;;;5032743;28;20108;-63
2022/03/02 13:24:04;;;;;;;0.30;0.10;;;;;;;;;;5030173;28;20031;-63
2022/03/02 13:26:30;;;;;;;0.73;0.73;;;;;;;;;;5027970;28;20075;-64
2022/03/02 13:29:12;;;;;;;0.10;0.10;;;;;;;;;;5029816;28;20021;-63
2022/03/02 13:32:05;;;;;;;0.17;0.17;;;;;;;;;;5030265;28;20064;-63
2022/03/02 13:34:31;;;;;;;0.35;0.35;;;;;;;;;;5025969;28;20029;-64
2022/03/02 13:36:58;;;;;;;0.00;0.00;;;;;;;;;;5031510;28;20107;-63
2022/03/02 13:39:26;;;;;;;0.30;0.30;;;;;;;;;;5029078;28;20049;-64
2022/03/02 13:41:52;;;;;;;0.00;0.00;;;;;;;;;;5044076;28;20033;-66
2022/03/02 13:44:21;;;;;;;0.15;0.15;;;;;;;;;;5035114;28;20132;-59
2022/03/02 13:47:19;;;;;;;0.00;0.00;;;;;;;;;;5030181;28;20108;-63
2022/03/02 13:49:52;;;;;;;1.27;1.27;;;;;;;;;;5015880;28;20035;-62
2022/03/02 13:52:41;;;;;;;0.88;0.88;;;;;;;;;;5032359;28;20024;-64
2022/03/02 13:55:06;;;;;;;0.15;0.15;;;;;;;;;;5024017;28;20033;-62
2022/03/02 13:57:32;;;;;;;1.45;0.43;;;;;;;;;;5040007;28;20031;-62
2022/03/02 14:00:13;;;;;;;0.20;0.20;;;;;;;;;;5033041;28;20033;-61
2022/03/02 14:02:41;;;;;;;0.68;0.32;;;;;;;;;;5032818;28;20377;-62
2022/03/02 14:05:06;;;;;;;1.88;1.45;;;;;;;;;;5014005;28;20116;-63
2022/03/02 14:07:35;;;;;;;0.55;0.55;;;;;;;;;;5033378;28;20132;-64
2022/03/02 14:10:05;;;;;;;0.20;0.20;;;;;;;;;;5031852;28;20021;-62
2022/03/02 14:12:30;;;;;;;1.02;1.02;;;;;;;;;;5037418;28;20029;-61
2022/03/02 14:15:07;;;;;;;0.00;0.00;;;;;;;;;;5033879;28;20032;-62
2022/03/02 14:17:35;;;;;;;0.35;0.35;;;;;;;;;;5031170;28;20381;-63
2022/03/02 14:20:01;;;;;;;1.92;1.30;;;;;;;;;;5033432;28;20025;-63
2022/03/02 14:22:26;;;;;;;1.00;1.00;;;;;;;;;;5033392;28;20530;-62
2022/03/02 14:24:51;;;;;;;0.15;0.15;;;;;;;;;;5033146;28;20104;-62
2022/03/02 14:27:27;;;;;;;1.00;0.95;;;;;;;;;;5032824;28;20087;-63
2022/03/02 14:29:57;;;;;;;0.00;0.00;;;;;;;;;;5032975;28;20025;-63
2022/03/02 14:32:32;;;;;;;0.17;0.17;;;;;;;;;;5030890;28;20021;-63
2022/03/02 14:34:58;;;;;;;0.00;0.00;;;;;;;;;;5031685;28;20030;-62
2022/03/02 14:37:36;;;;;;;1.13;1.13;;;;;;;;;;5039971;28;20028;-63
2022/03/02 14:40:04;;;;;;;0.68;0.40;;;;;;;;;;5013728;28;20042;-62
2022/03/02 14:42:30;;;;;;;0.30;0.22;;;;;;;;;;5032063;28;20447;-61